sensor_id;sensor_type;location;lat;lon;timestamp;pressure;altitude;pressure_sealevel;temperature;humidity
25350;BME280;13302;48.796;11.978;2023-04-08T00:00:57;96843.94;;;7.65;34.57
25350;BME280;13302;48.796;11.978;2023-04-08T00:03:44;96850.69;;;7.68;34.40
25350;BME280;13302;48.796;11.978;2023-04-08T00:06:31;96848.91;;;7.72;34.43
25350;BME280;13302;48.796;11.978;2023-04-08T00:09:19;96854.53;;;7.75;34.50
25350;BME280;13302;48.796;11.978;2023-04-08T00:12:06;96857.41;;;7.79;34.28
25350;BME280;13302;48.796;11.978;2023-04-08T00:14:53;96859.53;;;7.82;34.38
25350;BME280;13302;48.796;11.978;2023-04-08T00:17:40;96853.81;;;7.87;34.32
25350;BME280;13302;48.796;11.978;2023-04-08T00:20:28;96851.53;;;7.89;34.29
25350;BME280;13302;48.796;11.978;2023-04-08T00:23:15;96857.84;;;7.90;34.31
25350;BME280;13302;48.796;11.978;2023-04-08T00:26:02;96859.13;;;7.92;34.13
25350;BME280;13302;48.796;11.978;2023-04-08T00:28:49;96859.94;;;7.93;34.22
25350;BME280;13302;48.796;11.978;2023-04-08T00:31:36;96860.44;;;7.95;34.26
25350;BME280;13302;48.796;11.978;2023-04-08T00:34:23;96856.84;;;7.94;34.38
25350;BME280;13302;48.796;11.978;2023-04-08T00:37:10;96862.00;;;7.96;34.10
25350;BME280;13302;48.796;11.978;2023-04-08T00:39:57;96859.25;;;7.96;34.22
25350;BME280;13302;48.796;11.978;2023-04-08T00:42:44;96860.06;;;7.96;34.11
25350;BME280;13302;48.796;11.978;2023-04-08T00:45:32;96858.13;;;7.97;34.19
25350;BME280;13302;48.796;11.978;2023-04-08T00:48:19;96862.81;;;7.96;34.28
25350;BME280;13302;48.796;11.978;2023-04-08T00:51:06;96860.44;;;7.95;34.18
25350;BME280;13302;48.796;11.978;2023-04-08T00:53:54;96865.13;;;7.94;34.11
25350;BME280;13302;48.796;11.978;2023-04-08T00:56:43;96872.56;;;7.94;34.33
25350;BME280;13302;48.796;11.978;2023-04-08T00:59:31;96870.94;;;7.93;34.25
25350;BME280;13302;48.796;11.978;2023-04-08T01:02:30;96870.50;;;7.91;34.31
25350;BME280;13302;48.796;11.978;2023-04-08T01:08:51;96871.13;;;7.88;34.33
25350;BME280;13302;48.796;11.978;2023-04-08T01:11:42;96869.19;;;7.88;34.12
25350;BME280;13302;48.796;11.978;2023-04-08T01:14:31;96865.31;;;7.89;34.44
25350;BME280;13302;48.796;11.978;2023-04-08T01:17:21;96863.69;;;7.88;34.29
25350;BME280;13302;48.796;11.978;2023-04-08T01:20:09;96866.78;;;7.87;34.22
25350;BME280;13302;48.796;11.978;2023-04-08T01:23:09;96863.88;;;7.83;34.13
25350;BME280;13302;48.796;11.978;2023-04-08T01:25:58;96865.50;;;7.84;34.22
25350;BME280;13302;48.796;11.978;2023-04-08T01:28:48;96868.59;;;7.82;34.20
25350;BME280;13302;48.796;11.978;2023-04-08T01:31:37;96873.75;;;7.84;34.13
25350;BME280;13302;48.796;11.978;2023-04-08T01:34:27;96876.03;;;7.82;34.01
25350;BME280;13302;48.796;11.978;2023-04-08T01:37:16;96862.59;;;7.80;34.17
25350;BME280;13302;48.796;11.978;2023-04-08T01:40:06;96864.41;;;7.76;34.06
25350;BME280;13302;48.796;11.978;2023-04-08T01:42:57;96870.59;;;7.73;34.07
25350;BME280;13302;48.796;11.978;2023-04-08T01:45:46;96867.03;;;7.73;34.34
25350;BME280;13302;48.796;11.978;2023-04-08T01:48:34;96868.97;;;7.72;34.18
25350;BME280;13302;48.796;11.978;2023-04-08T01:51:23;96865.75;;;7.70;33.95
25350;BME280;13302;48.796;11.978;2023-04-08T01:54:10;96865.25;;;7.68;34.34
25350;BME280;13302;48.796;11.978;2023-04-08T01:56:58;96859.31;;;7.66;33.94
25350;BME280;13302;48.796;11.978;2023-04-08T01:59:50;96864.19;;;7.61;34.14
25350;BME280;13302;48.796;11.978;2023-04-08T02:02:39;96858.19;;;7.59;34.26
25350;BME280;13302;48.796;11.978;2023-04-08T02:05:28;96873.56;;;7.60;34.19
25350;BME280;13302;48.796;11.978;2023-04-08T02:08:15;96865.66;;;7.58;34.26
25350;BME280;13302;48.796;11.978;2023-04-08T02:11:03;96860.78;;;7.55;34.10
25350;BME280;13302;48.796;11.978;2023-04-08T02:13:50;96869.41;;;7.54;34.22
25350;BME280;13302;48.796;11.978;2023-04-08T02:16:50;96870.84;;;7.51;34.34
25350;BME280;13302;48.796;11.978;2023-04-08T02:19:56;96864.88;;;7.49;34.30
25350;BME280;13302;48.796;11.978;2023-04-08T02:25:56;96875.88;;;7.49;34.35
25350;BME280;13302;48.796;11.978;2023-04-08T02:28:48;96871.19;;;7.50;34.52
25350;BME280;13302;48.796;11.978;2023-04-08T02:31:37;96874.28;;;7.48;34.45
25350;BME280;13302;48.796;11.978;2023-04-08T02:34:28;96876.69;;;7.50;34.50
25350;BME280;13302;48.796;11.978;2023-04-08T02:37:16;96875.06;;;7.49;34.39
25350;BME280;13302;48.796;11.978;2023-04-08T02:40:03;96877.03;;;7.48;34.73
25350;BME280;13302;48.796;11.978;2023-04-08T02:42:51;96876.53;;;7.46;34.63
25350;BME280;13302;48.796;11.978;2023-04-08T02:45:40;96872.81;;;7.42;34.72
25350;BME280;13302;48.796;11.978;2023-04-08T02:48:29;96872.50;;;7.44;34.52
25350;BME280;13302;48.796;11.978;2023-04-08T02:51:16;96877.69;;;7.45;34.60
25350;BME280;13302;48.796;11.978;2023-04-08T02:54:03;96877.69;;;7.45;34.84
25350;BME280;13302;48.796;11.978;2023-04-08T02:56:50;96880.75;;;7.44;34.73
25350;BME280;13302;48.796;11.978;2023-04-08T02:59:37;96879.13;;;7.43;34.82
25350;BME280;13302;48.796;11.978;2023-04-08T03:02:24;96886.56;;;7.42;34.89
25350;BME280;13302;48.796;11.978;2023-04-08T03:05:12;96876.38;;;7.43;34.85
25350;BME280;13302;48.796;11.978;2023-04-08T03:07:59;96874.13;;;7.45;34.80
25350;BME280;13302;48.796;11.978;2023-04-08T03:10:46;96880.44;;;7.45;34.80
25350;BME280;13302;48.796;11.978;2023-04-08T03:13:33;96876.06;;;7.44;34.76
25350;BME280;13302;48.796;11.978;2023-04-08T03:16:21;96873.78;;;7.46;34.98
25350;BME280;13302;48.796;11.978;2023-04-08T03:19:08;96881.25;;;7.46;34.92
25350;BME280;13302;48.796;11.978;2023-04-08T03:21:55;96880.09;;;7.47;34.87
25350;BME280;13302;48.796;11.978;2023-04-08T03:24:42;96881.72;;;7.48;34.79
25350;BME280;13302;48.796;11.978;2023-04-08T03:27:29;96889.16;;;7.47;34.80
25350;BME280;13302;48.796;11.978;2023-04-08T03:30:16;96884.47;;;7.48;35.07
25350;BME280;13302;48.796;11.978;2023-04-08T03:33:03;96889.16;;;7.47;34.97
25350;BME280;13302;48.796;11.978;2023-04-08T03:35:53;96888.34;;;7.47;34.92
25350;BME280;13302;48.796;11.978;2023-04-08T03:38:40;96890.28;;;7.46;34.85
25350;BME280;13302;48.796;11.978;2023-04-08T03:41:28;96887.22;;;7.48;34.91
25350;BME280;13302;48.796;11.978;2023-04-08T03:44:15;96888.34;;;7.47;34.65
25350;BME280;13302;48.796;11.978;2023-04-08T03:47:02;96898.22;;;7.48;34.85
25350;BME280;13302;48.796;11.978;2023-04-08T03:49:51;96887.53;;;7.46;34.53
25350;BME280;13302;48.796;11.978;2023-04-08T03:52:38;96890.78;;;7.48;34.65
25350;BME280;13302;48.796;11.978;2023-04-08T03:55:26;96893.84;;;7.47;34.88
25350;BME280;13302;48.796;11.978;2023-04-08T03:58:12;96896.94;;;7.45;34.68
25350;BME280;13302;48.796;11.978;2023-04-08T04:00:59;96897.09;;;7.49;34.76
25350;BME280;13302;48.796;11.978;2023-04-08T04:03:46;96893.22;;;7.50;34.64
25350;BME280;13302;48.796;11.978;2023-04-08T04:06:34;96894.47;;;7.52;34.74
25350;BME280;13302;48.796;11.978;2023-04-08T04:09:21;96892.19;;;7.54;34.51
25350;BME280;13302;48.796;11.978;2023-04-08T04:12:08;96900.44;;;7.54;34.58
25350;BME280;13302;48.796;11.978;2023-04-08T04:14:55;96899.31;;;7.55;34.60
25350;BME280;13302;48.796;11.978;2023-04-08T04:17:42;96904.34;;;7.53;34.38
25350;BME280;13302;48.796;11.978;2023-04-08T04:20:29;96906.28;;;7.53;34.63
25350;BME280;13302;48.796;11.978;2023-04-08T04:23:16;96914.19;;;7.54;34.39
25350;BME280;13302;48.796;11.978;2023-04-08T04:26:08;96905.47;;;7.52;34.47
25350;BME280;13302;48.796;11.978;2023-04-08T04:28:55;96907.41;;;7.52;34.43
25350;BME280;13302;48.796;11.978;2023-04-08T04:31:42;96913.41;;;7.54;34.49
25350;BME280;13302;48.796;11.978;2023-04-08T04:34:29;96907.91;;;7.54;34.57
25350;BME280;13302;48.796;11.978;2023-04-08T04:37:16;96912.59;;;7.53;34.50
25350;BME280;13302;48.796;11.978;2023-04-08T04:40:05;96924.72;;;7.52;34.59
25350;BME280;13302;48.796;11.978;2023-04-08T04:42:52;96917.63;;;7.51;34.35
25350;BME280;13302;48.796;11.978;2023-04-08T04:45:39;96921.66;;;7.54;34.62
25350;BME280;13302;48.796;11.978;2023-04-08T04:48:26;96924.41;;;7.54;34.51
25350;BME280;13302;48.796;11.978;2023-04-08T04:51:13;96935.06;;;7.55;34.33
25350;BME280;13302;48.796;11.978;2023-04-08T04:54:00;96927.94;;;7.54;34.55
25350;BME280;13302;48.796;11.978;2023-04-08T04:56:47;96925.69;;;7.56;34.45
25350;BME280;13302;48.796;11.978;2023-04-08T04:59:35;96934.44;;;7.58;34.37
25350;BME280;13302;48.796;11.978;2023-04-08T05:02:22;96928.94;;;7.58;34.37
25350;BME280;13302;48.796;11.978;2023-04-08T05:05:09;96938.78;;;7.59;34.48
25350;BME280;13302;48.796;11.978;2023-04-08T05:07:57;96941.53;;;7.59;34.34
25350;BME280;13302;48.796;11.978;2023-04-08T05:10:44;96944.13;;;7.56;34.47
25350;BME280;13302;48.796;11.978;2023-04-08T05:13:31;96938.63;;;7.56;34.28
25350;BME280;13302;48.796;11.978;2023-04-08T05:16:18;96940.56;;;7.55;34.57
25350;BME280;13302;48.796;11.978;2023-04-08T05:19:05;96935.88;;;7.56;34.40
25350;BME280;13302;48.796;11.978;2023-04-08T05:21:52;96946.22;;;7.59;34.47
25350;BME280;13302;48.796;11.978;2023-04-08T05:24:39;96949.78;;;7.59;34.38
25350;BME280;13302;48.796;11.978;2023-04-08T05:27:26;96950.59;;;7.60;34.35
25350;BME280;13302;48.796;11.978;2023-04-08T05:30:13;96958.03;;;7.59;34.48
25350;BME280;13302;48.796;11.978;2023-04-08T05:33:00;96962.72;;;7.59;34.60
25350;BME280;13302;48.796;11.978;2023-04-08T05:35:47;96960.31;;;7.57;34.60
25350;BME280;13302;48.796;11.978;2023-04-08T05:38:34;96963.22;;;7.61;34.44
25350;BME280;13302;48.796;11.978;2023-04-08T05:41:21;96959.66;;;7.60;34.42
25350;BME280;13302;48.796;11.978;2023-04-08T05:44:08;96963.22;;;7.61;34.46
25350;BME280;13302;48.796;11.978;2023-04-08T05:46:55;96965.97;;;7.61;34.46
25350;BME280;13302;48.796;11.978;2023-04-08T05:49:43;96965.97;;;7.61;34.70
25350;BME280;13302;48.796;11.978;2023-04-08T05:52:30;96968.72;;;7.61;34.45
25350;BME280;13302;48.796;11.978;2023-04-08T05:55:17;96966.78;;;7.61;34.86
25350;BME280;13302;48.796;11.978;2023-04-08T05:58:05;96969.69;;;7.65;34.61
25350;BME280;13302;48.796;11.978;2023-04-08T06:00:52;96982.31;;;7.66;34.58
25350;BME280;13302;48.796;11.978;2023-04-08T06:03:41;96977.63;;;7.66;34.52
25350;BME280;13302;48.796;11.978;2023-04-08T06:06:28;96981.97;;;7.67;34.44
25350;BME280;13302;48.796;11.978;2023-04-08T06:09:15;96978.88;;;7.69;34.31
25350;BME280;13302;48.796;11.978;2023-04-08T06:12:02;96988.41;;;7.71;34.69
25350;BME280;13302;48.796;11.978;2023-04-08T06:14:53;96992.31;;;7.70;34.59
25350;BME280;13302;48.796;11.978;2023-04-08T06:17:41;96994.06;;;7.75;34.77
25350;BME280;13302;48.796;11.978;2023-04-08T06:20:28;96993.44;;;7.78;34.65
25350;BME280;13302;48.796;11.978;2023-04-08T06:23:16;97000.53;;;7.79;34.55
25350;BME280;13302;48.796;11.978;2023-04-08T06:26:03;96993.91;;;7.80;34.72
25350;BME280;13302;48.796;11.978;2023-04-08T06:28:50;96997.13;;;7.82;34.72
25350;BME280;13302;48.796;11.978;2023-04-08T06:31:38;97001.47;;;7.83;34.65
25350;BME280;13302;48.796;11.978;2023-04-08T06:34:25;97012.16;;;7.84;34.57
25350;BME280;13302;48.796;11.978;2023-04-08T06:37:12;97009.41;;;7.84;34.43
25350;BME280;13302;48.796;11.978;2023-04-08T06:39:59;97013.78;;;7.86;34.48
25350;BME280;13302;48.796;11.978;2023-04-08T06:42:46;97014.13;;;7.84;34.38
25350;BME280;13302;48.796;11.978;2023-04-08T06:45:39;97024.81;;;7.86;34.41
25350;BME280;13302;48.796;11.978;2023-04-08T06:48:28;97029.97;;;7.87;34.48
25350;BME280;13302;48.796;11.978;2023-04-08T06:51:16;97036.63;;;7.86;34.41
25350;BME280;13302;48.796;11.978;2023-04-08T06:54:03;97047.50;;;7.82;34.56
25350;BME280;13302;48.796;11.978;2023-04-08T06:56:50;97035.53;;;7.78;34.63
25350;BME280;13302;48.796;11.978;2023-04-08T06:59:37;97056.88;;;7.81;34.34
25350;BME280;13302;48.796;11.978;2023-04-08T07:02:24;97058.50;;;7.82;34.78
25350;BME280;13302;48.796;11.978;2023-04-08T07:05:12;97059.13;;;7.79;34.53
25350;BME280;13302;48.796;11.978;2023-04-08T07:07:59;97056.38;;;7.79;34.82
25350;BME280;13302;48.796;11.978;2023-04-08T07:10:46;97057.22;;;7.71;34.65
25350;BME280;13302;48.796;11.978;2023-04-08T07:13:33;97060.16;;;7.66;34.75
25350;BME280;13302;48.796;11.978;2023-04-08T07:16:20;97062.91;;;7.66;34.74
25350;BME280;13302;48.796;11.978;2023-04-08T07:19:07;97072.59;;;7.64;35.04
25350;BME280;13302;48.796;11.978;2023-04-08T07:21:54;97071.31;;;7.61;34.93
25350;BME280;13302;48.796;11.978;2023-04-08T07:24:42;97065.84;;;7.53;35.28
25350;BME280;13302;48.796;11.978;2023-04-08T07:27:33;97063.91;;;7.53;34.85
25350;BME280;13302;48.796;11.978;2023-04-08T07:30:20;97073.28;;;7.52;35.23
25350;BME280;13302;48.796;11.978;2023-04-08T07:33:08;97070.69;;;7.47;35.33
25350;BME280;13302;48.796;11.978;2023-04-08T07:35:55;97071.34;;;7.44;35.49
25350;BME280;13302;48.796;11.978;2023-04-08T07:38:42;97072.81;;;7.42;35.51
25350;BME280;13302;48.796;11.978;2023-04-08T07:41:29;97078.63;;;7.40;35.50
25350;BME280;13302;48.796;11.978;2023-04-08T07:44:16;97079.75;;;7.39;35.48
25350;BME280;13302;48.796;11.978;2023-04-08T07:47:03;97083.97;;;7.36;35.56
25350;BME280;13302;48.796;11.978;2023-04-08T07:49:50;97088.94;;;7.34;35.75
25350;BME280;13302;48.796;11.978;2023-04-08T07:52:37;97084.59;;;7.33;35.98
25350;BME280;13302;48.796;11.978;2023-04-08T07:55:24;97084.59;;;7.33;35.72
25350;BME280;13302;48.796;11.978;2023-04-08T07:58:11;97092.84;;;7.33;35.82
25350;BME280;13302;48.796;11.978;2023-04-08T08:00:58;97092.53;;;7.35;35.80
25350;BME280;13302;48.796;11.978;2023-04-08T08:03:46;97093.63;;;7.34;36.08
25350;BME280;13302;48.796;11.978;2023-04-08T08:06:34;97090.41;;;7.32;36.08
25350;BME280;13302;48.796;11.978;2023-04-08T08:09:21;97096.22;;;7.30;36.20
25350;BME280;13302;48.796;11.978;2023-04-08T08:12:08;97093.97;;;7.32;36.18
25350;BME280;13302;48.796;11.978;2023-04-08T08:14:55;97098.34;;;7.33;36.32
25350;BME280;13302;48.796;11.978;2023-04-08T08:17:44;97101.88;;;7.34;36.35
25350;BME280;13302;48.796;11.978;2023-04-08T08:20:32;97101.41;;;7.32;36.54
25350;BME280;13302;48.796;11.978;2023-04-08T08:23:21;97103.53;;;7.35;36.59
25350;BME280;13302;48.796;11.978;2023-04-08T08:26:09;97102.88;;;7.38;36.80
25350;BME280;13302;48.796;11.978;2023-04-08T08:28:56;97104.19;;;7.41;36.53
25350;BME280;13302;48.796;11.978;2023-04-08T08:31:43;97098.69;;;7.41;36.82
25350;BME280;13302;48.796;11.978;2023-04-08T08:34:30;97110.97;;;7.43;36.70
25350;BME280;13302;48.796;11.978;2023-04-08T08:37:17;97100.13;;;7.47;36.87
25350;BME280;13302;48.796;11.978;2023-04-08T08:40:05;97111.63;;;7.49;37.02
25350;BME280;13302;48.796;11.978;2023-04-08T08:42:52;97105.78;;;7.50;36.82
25350;BME280;13302;48.796;11.978;2023-04-08T08:45:40;97107.41;;;7.51;37.13
25350;BME280;13302;48.796;11.978;2023-04-08T08:48:27;97109.34;;;7.51;37.29
25350;BME280;13302;48.796;11.978;2023-04-08T08:51:15;97116.16;;;7.53;37.01
25350;BME280;13302;48.796;11.978;2023-04-08T08:54:02;97120.19;;;7.56;37.27
25350;BME280;13302;48.796;11.978;2023-04-08T08:56:50;97125.38;;;7.57;37.22
25350;BME280;13302;48.796;11.978;2023-04-08T08:59:37;97128.28;;;7.61;37.24
25350;BME280;13302;48.796;11.978;2023-04-08T09:02:31;97121.66;;;7.62;37.33
25350;BME280;13302;48.796;11.978;2023-04-08T09:05:19;97125.03;;;7.59;37.23
25350;BME280;13302;48.796;11.978;2023-04-08T09:08:22;97126.34;;;7.61;37.35
25350;BME280;13302;48.796;11.978;2023-04-08T09:11:17;97133.13;;;7.64;37.08
25350;BME280;13302;48.796;11.978;2023-04-08T09:14:04;97135.56;;;7.65;37.13
25350;BME280;13302;48.796;11.978;2023-04-08T09:16:52;97136.38;;;7.66;37.38
25350;BME280;13302;48.796;11.978;2023-04-08T09:20:03;97141.91;;;7.66;37.50
25350;BME280;13302;48.796;11.978;2023-04-08T09:23:01;97137.19;;;7.66;37.51
25350;BME280;13302;48.796;11.978;2023-04-08T09:25:48;97138.78;;;7.67;37.46
25350;BME280;13302;48.796;11.978;2023-04-08T09:28:36;97143.16;;;7.68;37.51
25350;BME280;13302;48.796;11.978;2023-04-08T09:31:25;97145.63;;;7.70;37.50
25350;BME280;13302;48.796;11.978;2023-04-08T09:34:15;97134.25;;;7.71;37.64
25350;BME280;13302;48.796;11.978;2023-04-08T09:37:03;97139.44;;;7.73;37.59
25350;BME280;13302;48.796;11.978;2023-04-08T09:39:50;97137.50;;;7.73;37.52
25350;BME280;13302;48.796;11.978;2023-04-08T09:42:40;97140.25;;;7.73;37.58
25350;BME280;13302;48.796;11.978;2023-04-08T09:45:32;97142.66;;;7.75;37.51
25350;BME280;13302;48.796;11.978;2023-04-08T09:48:23;97144.28;;;7.76;37.62
25350;BME280;13302;48.796;11.978;2023-04-08T09:51:15;97138.47;;;7.77;37.96
25350;BME280;13302;48.796;11.978;2023-04-08T09:54:07;97142.03;;;7.78;37.73
25350;BME280;13302;48.796;11.978;2023-04-08T09:57:00;97145.59;;;7.78;37.66
25350;BME280;13302;48.796;11.978;2023-04-08T09:59:59;97141.22;;;7.77;37.87
25350;BME280;13302;48.796;11.978;2023-04-08T10:03:22;97138.31;;;7.74;37.95
25350;BME280;13302;48.796;11.978;2023-04-08T10:06:13;97146.06;;;7.80;38.13
25350;BME280;13302;48.796;11.978;2023-04-08T10:09:01;97142.84;;;7.78;37.95
25350;BME280;13302;48.796;11.978;2023-04-08T10:11:50;97145.75;;;7.82;38.06
25350;BME280;13302;48.796;11.978;2023-04-08T10:14:37;97147.03;;;7.84;37.85
25350;BME280;13302;48.796;11.978;2023-04-08T10:17:25;97144.28;;;7.84;38.12
25350;BME280;13302;48.796;11.978;2023-04-08T10:23:53;97145.91;;;7.86;38.05
25350;BME280;13302;48.796;11.978;2023-04-08T10:26:43;97143.81;;;7.91;37.82
25350;BME280;13302;48.796;11.978;2023-04-08T10:29:30;97154.16;;;7.94;37.91
25350;BME280;13302;48.796;11.978;2023-04-08T10:32:27;97160.13;;;7.96;37.78
25350;BME280;13302;48.796;11.978;2023-04-08T10:35:15;97153.50;;;7.97;37.65
25350;BME280;13302;48.796;11.978;2023-04-08T10:38:03;97148.78;;;7.98;37.80
25350;BME280;13302;48.796;11.978;2023-04-08T10:40:50;97160.94;;;7.97;37.79
25350;BME280;13302;48.796;11.978;2023-04-08T10:43:38;97158.19;;;7.97;37.97
25350;BME280;13302;48.796;11.978;2023-04-08T10:46:28;97160.47;;;7.95;38.02
25350;BME280;13302;48.796;11.978;2023-04-08T10:49:31;97164.66;;;7.92;37.88
25350;BME280;13302;48.796;11.978;2023-04-08T10:52:19;97161.75;;;7.97;38.19
25350;BME280;13302;48.796;11.978;2023-04-08T10:55:07;97163.38;;;7.98;38.30
25350;BME280;13302;48.796;11.978;2023-04-08T10:57:54;97157.53;;;8.00;38.43
25350;BME280;13302;48.796;11.978;2023-04-08T11:00:44;97155.72;;;8.04;38.13
25350;BME280;13302;48.796;11.978;2023-04-08T11:03:32;97153.47;;;8.06;38.57
25350;BME280;13302;48.796;11.978;2023-04-08T11:06:20;97159.44;;;8.08;38.27
25350;BME280;13302;48.796;11.978;2023-04-08T11:09:08;97158.81;;;8.11;38.40
25350;BME280;13302;48.796;11.978;2023-04-08T11:11:55;97165.75;;;8.17;38.30
25350;BME280;13302;48.796;11.978;2023-04-08T11:14:42;97163.00;;;8.17;38.22
25350;BME280;13302;48.796;11.978;2023-04-08T11:17:30;97165.09;;;8.20;38.24
25350;BME280;13302;48.796;11.978;2023-04-08T11:20:20;97161.19;;;8.21;38.20
25350;BME280;13302;48.796;11.978;2023-04-08T11:23:15;97161.56;;;8.19;38.28
25350;BME280;13302;48.796;11.978;2023-04-08T11:26:03;97162.00;;;8.21;38.21
25350;BME280;13302;48.796;11.978;2023-04-08T11:28:53;97161.19;;;8.21;38.29
25350;BME280;13302;48.796;11.978;2023-04-08T11:31:42;97167.34;;;8.26;38.25
25350;BME280;13302;48.796;11.978;2023-04-08T11:34:30;97172.38;;;8.24;38.41
25350;BME280;13302;48.796;11.978;2023-04-08T11:37:17;97168.97;;;8.27;38.45
25350;BME280;13302;48.796;11.978;2023-04-08T11:40:11;97163.47;;;8.27;38.38
25350;BME280;13302;48.796;11.978;2023-04-08T11:42:58;97162.81;;;8.30;38.36
25350;BME280;13302;48.796;11.978;2023-04-08T11:45:45;97165.56;;;8.30;38.45
25350;BME280;13302;48.796;11.978;2023-04-08T11:48:32;97167.50;;;8.30;38.56
25350;BME280;13302;48.796;11.978;2023-04-08T11:51:19;97170.41;;;8.34;38.26
25350;BME280;13302;48.796;11.978;2023-04-08T11:54:28;97178.66;;;8.34;38.30
25350;BME280;13302;48.796;11.978;2023-04-08T11:57:27;97174.47;;;8.36;38.40
25350;BME280;13302;48.796;11.978;2023-04-08T12:00:15;97178.81;;;8.37;38.66
25350;BME280;13302;48.796;11.978;2023-04-08T12:03:02;97177.69;;;8.38;38.15
25350;BME280;13302;48.796;11.978;2023-04-08T12:05:49;97174.13;;;8.38;38.45
25350;BME280;13302;48.796;11.978;2023-04-08T12:08:36;97173.44;;;8.41;38.23
25350;BME280;13302;48.796;11.978;2023-04-08T12:11:23;97177.03;;;8.41;38.56
25350;BME280;13302;48.796;11.978;2023-04-08T12:14:10;97181.72;;;8.41;38.57
25350;BME280;13302;48.796;11.978;2023-04-08T12:16:57;97179.13;;;8.44;38.30
25350;BME280;13302;48.796;11.978;2023-04-08T12:19:44;97181.72;;;8.41;38.44
25350;BME280;13302;48.796;11.978;2023-04-08T12:22:32;97188.53;;;8.43;38.58
25350;BME280;13302;48.796;11.978;2023-04-08T12:25:19;97190.16;;;8.44;38.54
25350;BME280;13302;48.796;11.978;2023-04-08T12:28:07;97185.09;;;8.46;38.34
25350;BME280;13302;48.796;11.978;2023-04-08T12:30:55;97184.78;;;8.48;38.40
25350;BME280;13302;48.796;11.978;2023-04-08T12:33:42;97188.69;;;8.47;38.58
25350;BME280;13302;48.796;11.978;2023-04-08T12:36:29;97183.16;;;8.47;38.41
25350;BME280;13302;48.796;11.978;2023-04-08T12:39:17;97189.50;;;8.47;38.36
25350;BME280;13302;48.796;11.978;2023-04-08T12:42:04;97186.38;;;8.49;38.26
25350;BME280;13302;48.796;11.978;2023-04-08T12:44:51;97180.41;;;8.47;38.48
25350;BME280;13302;48.796;11.978;2023-04-08T12:47:38;97189.81;;;8.46;38.60
25350;BME280;13302;48.796;11.978;2023-04-08T12:50:26;97191.13;;;8.48;38.56
25350;BME280;13302;48.796;11.978;2023-04-08T12:53:13;97191.13;;;8.48;38.49
25350;BME280;13302;48.796;11.978;2023-04-08T12:56:00;97179.47;;;8.51;38.45
25350;BME280;13302;48.796;11.978;2023-04-08T12:58:47;97181.91;;;8.53;38.52
25350;BME280;13302;48.796;11.978;2023-04-08T13:01:34;97181.53;;;8.54;38.53
25350;BME280;13302;48.796;11.978;2023-04-08T13:04:22;97189.00;;;8.54;38.69
25350;BME280;13302;48.796;11.978;2023-04-08T13:07:09;97182.34;;;8.55;38.78
25350;BME280;13302;48.796;11.978;2023-04-08T13:09:56;97184.31;;;8.54;38.75
25350;BME280;13302;48.796;11.978;2023-04-08T13:12:43;97187.06;;;8.54;38.76
25350;BME280;13302;48.796;11.978;2023-04-08T13:15:30;97186.75;;;8.56;38.58
25350;BME280;13302;48.796;11.978;2023-04-08T13:18:17;97183.97;;;8.56;38.73
25350;BME280;13302;48.796;11.978;2023-04-08T13:21:04;97184.44;;;8.58;38.54
25350;BME280;13302;48.796;11.978;2023-04-08T13:23:51;97178.94;;;8.58;38.78
25350;BME280;13302;48.796;11.978;2023-04-08T13:26:38;97190.78;;;8.58;38.64
25350;BME280;13302;48.796;11.978;2023-04-08T13:29:25;97187.69;;;8.60;38.83
25350;BME280;13302;48.796;11.978;2023-04-08T13:32:12;97187.69;;;8.60;38.80
25350;BME280;13302;48.796;11.978;2023-04-08T13:34:59;97186.56;;;8.61;38.81
25350;BME280;13302;48.796;11.978;2023-04-08T13:37:46;97194.03;;;8.60;38.79
25350;BME280;13302;48.796;11.978;2023-04-08T13:40:33;97188.16;;;8.62;38.68
25350;BME280;13302;48.796;11.978;2023-04-08T13:43:20;97196.44;;;8.62;38.73
25350;BME280;13302;48.796;11.978;2023-04-08T13:46:08;97192.84;;;8.61;38.68
25350;BME280;13302;48.796;11.978;2023-04-08T13:48:55;97189.63;;;8.59;38.67
25350;BME280;13302;48.796;11.978;2023-04-08T13:51:42;97192.06;;;8.61;39.01
25350;BME280;13302;48.796;11.978;2023-04-08T13:54:29;97191.25;;;8.60;38.87
25350;BME280;13302;48.796;11.978;2023-04-08T13:57:16;97189.31;;;8.61;38.75
25350;BME280;13302;48.796;11.978;2023-04-08T14:00:04;97187.69;;;8.60;38.75
25350;BME280;13302;48.796;11.978;2023-04-08T14:02:55;97197.59;;;8.61;38.66
25350;BME280;13302;48.796;11.978;2023-04-08T14:05:43;97188.50;;;8.60;38.73
25350;BME280;13302;48.796;11.978;2023-04-08T14:08:31;97189.16;;;8.57;38.95
25350;BME280;13302;48.796;11.978;2023-04-08T14:11:18;97187.19;;;8.58;38.88
25350;BME280;13302;48.796;11.978;2023-04-08T14:14:05;97190.78;;;8.58;38.97
25350;BME280;13302;48.796;11.978;2023-04-08T14:16:51;97183.81;;;8.61;39.10
25350;BME280;13302;48.796;11.978;2023-04-08T14:19:39;97192.22;;;8.64;38.89
25350;BME280;13302;48.796;11.978;2023-04-08T14:22:26;97200.94;;;8.66;39.27
25350;BME280;13302;48.796;11.978;2023-04-08T14:25:13;97195.25;;;8.71;39.00
25350;BME280;13302;48.796;11.978;2023-04-08T14:28:00;97193.91;;;8.77;38.87
25350;BME280;13302;48.796;11.978;2023-04-08T14:30:47;97191.00;;;8.83;39.10
25350;BME280;13302;48.796;11.978;2023-04-08T14:33:34;97195.50;;;8.87;38.93
25350;BME280;13302;48.796;11.978;2023-04-08T14:36:21;97191.28;;;8.90;38.78
25350;BME280;13302;48.796;11.978;2023-04-08T14:39:10;97191.44;;;8.93;38.98
25350;BME280;13302;48.796;11.978;2023-04-08T14:41:57;97195.97;;;8.98;38.88
25350;BME280;13302;48.796;11.978;2023-04-08T14:44:44;97204.38;;;9.01;38.81
25350;BME280;13302;48.796;11.978;2023-04-08T14:47:31;97198.50;;;9.03;38.62
25350;BME280;13302;48.796;11.978;2023-04-08T14:50:18;97195.44;;;9.04;38.54
25350;BME280;13302;48.796;11.978;2023-04-08T14:53:06;97193.94;;;9.07;38.50
25350;BME280;13302;48.796;11.978;2023-04-08T14:55:53;97203.84;;;9.08;38.37
25350;BME280;13302;48.796;11.978;2023-04-08T14:58:40;97209.34;;;9.08;38.38
25350;BME280;13302;48.796;11.978;2023-04-08T15:01:27;97206.91;;;9.06;38.70